Time;durP1;ratioP1;P1;durP2;ratioP2;P2;SDS_P1;SDS_P2;PMS_P1;PMS_P2;Temp;Humidity;BMP_temperature;BMP_pressure;BME280_temperature;BME280_humidity;BME280_pressure;Samples;Min_cycle;Max_cycle;Signal;HPM_P1;HPM_P2
2023/10/14 00:02:21;;;;;;;14.20;7.80;;;;;;;;;;5053912;28;20392;-84
2023/10/14 00:04:47;;;;;;;13.53;8.13;;;;;;;;;;5036043;28;20948;-85
2023/10/14 00:07:17;;;;;;;13.30;7.40;;;;;;;;;;5054015;28;20406;-84
2023/10/14 00:09:43;;;;;;;16.60;8.30;;;;;;;;;;5036867;28;20751;-86
2023/10/14 00:12:13;;;;;;;15.50;8.23;;;;;;;;;;5053932;28;20744;-82
2023/10/14 00:14:48;;;;;;;12.07;7.00;;;;;;;;;;5041157;28;20737;-82
2023/10/14 00:17:18;;;;;;;8.97;6.50;;;;;;;;;;5043659;28;20510;-84
2023/10/14 00:19:49;;;;;;;12.87;5.90;;;;;;;;;;5053902;28;20381;-84
2023/10/14 00:22:15;;;;;;;15.20;6.53;;;;;;;;;;5053736;28;20374;-84
2023/10/14 00:24:43;;;;;;;9.83;6.50;;;;;;;;;;5035682;28;20430;-84
2023/10/14 00:27:09;;;;;;;9.70;5.60;;;;;;;;;;5019757;28;20759;-86
2023/10/14 00:29:36;;;;;;;11.00;6.20;;;;;;;;;;5035875;28;20404;-89
2023/10/14 00:32:05;;;;;;;8.27;4.60;;;;;;;;;;5053604;28;20406;-87
2023/10/14 00:34:31;;;;;;;14.40;7.70;;;;;;;;;;5054073;28;20465;-82
2023/10/14 00:36:58;;;;;;;8.10;5.10;;;;;;;;;;5035557;28;20748;-80
2023/10/14 00:39:24;;;;;;;9.37;4.87;;;;;;;;;;5036004;28;20416;-82
2023/10/14 00:41:52;;;;;;;12.50;6.00;;;;;;;;;;5035837;28;20408;-82
2023/10/14 00:44:18;;;;;;;13.60;6.30;;;;;;;;;;5036128;28;20407;-81
2023/10/14 00:46:54;;;;;;;10.87;5.57;;;;;;;;;;5054100;28;20412;-83
2023/10/14 00:49:22;;;;;;;12.10;5.77;;;;;;;;;;5036585;28;20415;-83
2023/10/14 00:51:49;;;;;;;10.07;5.40;;;;;;;;;;5054191;28;20500;-83
2023/10/14 00:54:40;;;;;;;12.40;5.93;;;;;;;;;;5036001;28;20379;-83
2023/10/14 00:59:45;;;;;;;10.53;6.30;;;;;;;;;;5053852;28;20834;-83
2023/10/14 01:02:11;;;;;;;12.00;5.90;;;;;;;;;;5038490;28;20424;-83
2023/10/14 01:04:40;;;;;;;14.93;5.70;;;;;;;;;;5057616;28;20825;-82
2023/10/14 01:07:12;;;;;;;14.57;5.03;;;;;;;;;;5039476;28;20445;-82
2023/10/14 01:12:23;;;;;;;9.63;5.30;;;;;;;;;;5057176;28;20379;-83
2023/10/14 01:14:53;;;;;;;9.73;5.27;;;;;;;;;;5057154;28;20404;-84
2023/10/14 01:17:32;;;;;;;9.77;5.50;;;;;;;;;;5039084;28;20408;-83
2023/10/14 01:22:43;;;;;;;5.80;4.40;;;;;;;;;;5057105;28;20375;-83
2023/10/14 01:25:15;;;;;;;6.40;4.80;;;;;;;;;;5039327;28;20562;-83
2023/10/14 01:27:44;;;;;;;9.33;4.90;;;;;;;;;;5040518;28;20402;-84
2023/10/14 01:30:14;;;;;;;7.60;4.03;;;;;;;;;;5039240;28;20419;-84
2023/10/14 01:35:20;;;;;;;6.40;4.93;;;;;;;;;;5056057;28;20923;-87
2023/10/14 01:37:46;;;;;;;7.70;4.67;;;;;;;;;;5038928;28;20442;-89
2023/10/14 01:42:56;;;;;;;6.90;4.57;;;;;;;;;;5041151;28;20388;-88
2023/10/14 01:45:22;;;;;;;10.60;4.57;;;;;;;;;;5039563;28;20498;-91
2023/10/14 01:48:00;;;;;;;6.70;4.13;;;;;;;;;;5040677;28;20400;-92
2023/10/14 01:50:26;;;;;;;9.80;4.00;;;;;;;;;;5058025;28;20370;-93
2023/10/14 01:52:52;;;;;;;6.83;3.80;;;;;;;;;;5041115;28;20896;-93
2023/10/14 01:55:20;;;;;;;9.87;5.17;;;;;;;;;;5025695;28;20444;-93
2023/10/14 01:57:47;;;;;;;12.07;4.20;;;;;;;;;;5041217;28;20404;-93
2023/10/14 02:00:24;;;;;;;6.23;3.80;;;;;;;;;;5040584;28;20760;-93
2023/10/14 02:03:01;;;;;;;9.27;4.90;;;;;;;;;;5040375;28;20790;-93
2023/10/14 02:05:27;;;;;;;8.80;4.30;;;;;;;;;;5057310;28;20448;-93
2023/10/14 02:07:53;;;;;;;4.87;3.33;;;;;;;;;;5044308;28;20428;-94
2023/10/14 02:10:19;;;;;;;7.10;4.10;;;;;;;;;;5067156;28;20475;-92
2023/10/14 02:12:45;;;;;;;7.20;3.67;;;;;;;;;;5030439;28;20417;-91
2023/10/14 02:15:11;;;;;;;4.57;2.90;;;;;;;;;;5056169;28;20411;-89
2023/10/14 02:17:37;;;;;;;3.57;2.47;;;;;;;;;;5039226;28;20397;-90
2023/10/14 02:20:20;;;;;;;2.20;1.80;;;;;;;;;;5022509;28;20394;-84
2023/10/14 02:22:49;;;;;;;3.10;1.90;;;;;;;;;;5024730;28;20808;-83
2023/10/14 02:25:15;;;;;;;2.60;2.00;;;;;;;;;;5038470;28;20509;-84
2023/10/14 02:27:43;;;;;;;2.00;1.77;;;;;;;;;;5038151;28;20423;-84
2023/10/14 02:30:09;;;;;;;6.20;1.87;;;;;;;;;;5038875;28;20438;-84
2023/10/14 02:32:35;;;;;;;3.10;1.13;;;;;;;;;;5038419;28;20491;-88
2023/10/14 02:35:04;;;;;;;1.10;0.70;;;;;;;;;;5037908;28;20393;-93
2023/10/14 02:37:30;;;;;;;1.00;0.60;;;;;;;;;;5037496;28;20864;-87
2023/10/14 02:39:58;;;;;;;0.70;0.50;;;;;;;;;;5021399;28;20458;-87
2023/10/14 02:42:25;;;;;;;2.80;0.80;;;;;;;;;;5021332;28;20412;-86
2023/10/14 02:44:54;;;;;;;0.80;0.57;;;;;;;;;;5037738;28;20452;-86
2023/10/14 02:47:21;;;;;;;0.80;0.50;;;;;;;;;;5037547;28;20415;-87
2023/10/14 02:49:54;;;;;;;2.30;0.60;;;;;;;;;;5054365;28;20412;-87
2023/10/14 02:52:29;;;;;;;0.90;0.60;;;;;;;;;;5054483;28;20915;-85
2023/10/14 02:54:58;;;;;;;2.27;0.57;;;;;;;;;;5055636;28;20388;-86
2023/10/14 02:57:28;;;;;;;1.57;0.60;;;;;;;;;;5055573;28;20806;-85
2023/10/14 02:59:57;;;;;;;1.93;0.83;;;;;;;;;;5022127;28;20424;-85
2023/10/14 03:02:27;;;;;;;0.70;0.60;;;;;;;;;;5038086;28;20822;-85
2023/10/14 03:07:29;;;;;;;1.63;0.70;;;;;;;;;;5055315;28;20431;-85
2023/10/14 03:09:58;;;;;;;0.90;0.60;;;;;;;;;;5037893;28;20490;-87
2023/10/14 03:12:25;;;;;;;1.43;0.80;;;;;;;;;;5037425;28;20778;-85
2023/10/14 03:14:54;;;;;;;1.00;0.80;;;;;;;;;;5021243;28;20454;-85
2023/10/14 03:17:25;;;;;;;1.03;0.90;;;;;;;;;;5037017;28;20416;-85
2023/10/14 03:19:53;;;;;;;1.23;1.13;;;;;;;;;;5055246;28;20424;-84
2023/10/14 03:22:27;;;;;;;3.60;1.60;;;;;;;;;;5037468;28;20896;-84
2023/10/14 03:25:02;;;;;;;3.00;2.20;;;;;;;;;;5036788;28;20462;-86
2023/10/14 03:27:32;;;;;;;7.23;2.30;;;;;;;;;;5036730;28;20423;-85
2023/10/14 03:29:59;;;;;;;4.50;2.53;;;;;;;;;;5037089;28;20510;-85
2023/10/14 03:32:33;;;;;;;4.03;3.40;;;;;;;;;;5036949;28;20396;-85
2023/10/14 03:35:10;;;;;;;5.00;3.77;;;;;;;;;;5037763;28;20457;-83
2023/10/14 03:37:40;;;;;;;7.87;3.93;;;;;;;;;;5038315;28;20463;-84
2023/10/14 03:42:54;;;;;;;5.53;2.17;;;;;;;;;;5055419;28;20453;-84
2023/10/14 03:45:22;;;;;;;4.33;2.40;;;;;;;;;;5014202;28;20539;-85
2023/10/14 03:47:59;;;;;;;8.60;2.83;;;;;;;;;;5029191;28;20428;-84
2023/10/14 03:50:26;;;;;;;5.27;2.30;;;;;;;;;;5036526;28;20454;-84
2023/10/14 03:52:55;;;;;;;6.90;2.90;;;;;;;;;;5054767;28;20468;-84
2023/10/14 03:55:24;;;;;;;8.80;2.73;;;;;;;;;;5020618;28;20394;-84
2023/10/14 03:57:52;;;;;;;7.47;2.50;;;;;;;;;;5038467;28;20427;-84
2023/10/14 04:00:37;;;;;;;5.07;3.03;;;;;;;;;;5017613;28;20470;-84
2023/10/14 04:03:11;;;;;;;5.40;2.77;;;;;;;;;;5023118;28;20430;-84
2023/10/14 04:05:37;;;;;;;10.23;2.30;;;;;;;;;;5054436;28;20947;-83
2023/10/14 04:08:05;;;;;;;3.50;2.20;;;;;;;;;;5037176;28;20479;-85
2023/10/14 04:10:37;;;;;;;9.80;3.10;;;;;;;;;;5037805;28;20422;-81
2023/10/14 04:13:04;;;;;;;13.33;5.77;;;;;;;;;;5056050;28;20396;-82
2023/10/14 04:17:57;;;;;;;22.80;3.60;;;;;;;;;;5055817;28;20404;-83
2023/10/14 04:20:30;;;;;;;11.68;2.80;;;;;;;;;;5047008;28;20974;-82
2023/10/14 04:22:57;;;;;;;8.03;2.20;;;;;;;;;;5053329;28;20196;-83
2023/10/14 04:25:39;;;;;;;10.10;3.37;;;;;;;;;;5060313;28;20408;-82
2023/10/14 04:30:44;;;;;;;16.67;2.70;;;;;;;;;;5055399;28;20388;-82
2023/10/14 04:36:08;;;;;;;8.23;2.70;;;;;;;;;;5035313;28;20970;-81
2023/10/14 04:38:37;;;;;;;14.67;2.90;;;;;;;;;;5039634;28;20460;-82
2023/10/14 04:41:04;;;;;;;12.90;2.33;;;;;;;;;;5021370;28;20432;-82
2023/10/14 04:46:12;;;;;;;8.60;2.50;;;;;;;;;;5059094;28;20412;-83
2023/10/14 04:48:39;;;;;;;11.40;2.70;;;;;;;;;;5058604;28;20819;-82
2023/10/14 04:51:19;;;;;;;12.67;3.00;;;;;;;;;;5058756;28;20937;-83
2023/10/14 04:53:49;;;;;;;13.70;3.15;;;12.30;99.90;;;;;;5058612;28;20750;-83
2023/10/14 04:56:29;;;;;;;11.50;2.70;;;12.10;99.90;;;;;;5058482;28;20661;-83
2023/10/14 04:58:55;;;;;;;8.20;3.50;;;12.10;99.90;;;;;;5026702;28;20778;-84
2023/10/14 05:01:24;;;;;;;18.00;3.40;;;12.10;99.90;;;;;;5058315;28;20476;-84
2023/10/14 05:03:55;;;;;;;8.10;2.70;;;12.00;99.90;;;;;;5023937;28;20423;-84
2023/10/14 05:06:21;;;;;;;13.27;3.00;;;12.10;99.90;;;;;;5058143;28;20872;-84
2023/10/14 05:08:55;;;;;;;16.87;3.40;;;12.10;99.90;;;;;;5058747;28;20422;-84
2023/10/14 05:11:24;;;;;;;12.33;3.10;;;12.10;99.90;;;;;;5025175;28;20826;-85
2023/10/14 05:14:07;;;;;;;10.13;3.27;;;12.00;99.90;;;;;;5041968;28;20412;-83
2023/10/14 05:16:57;;;;;;;25.67;4.87;;;12.00;99.90;;;;;;5042971;28;20451;-83
2023/10/14 05:19:24;;;;;;;12.00;2.67;;;12.00;99.90;;;;;;5041000;28;20490;-85
2023/10/14 05:22:05;;;;;;;9.00;2.47;;;11.90;99.90;;;;;;5058360;28;20412;-84
2023/10/14 05:24:31;;;;;;;11.10;2.80;;;11.90;99.90;;;;;;5025984;28;20423;-84
2023/10/14 05:27:00;;;;;;;15.27;2.60;;;11.90;99.90;;;;;;5039717;28;20749;-86
2023/10/14 05:29:29;;;;;;;9.63;3.33;;;11.90;99.90;;;;;;5057540;28;20256;-86
2023/10/14 05:32:15;;;;;;;9.33;2.67;;;11.80;99.90;;;;;;5023562;28;20178;-86
2023/10/14 05:34:43;;;;;;;10.75;2.65;;;11.70;99.90;;;;;;5025461;28;20447;-86
2023/10/14 05:37:11;;;;;;;13.88;2.97;;;11.60;99.90;;;;;;5056830;28;20204;-86
2023/10/14 05:39:40;;;;;;;12.18;2.55;;;11.50;99.90;;;;;;5039064;28;20177;-86
2023/10/14 05:42:16;;;;;;;15.52;3.15;;;11.50;99.90;;;;;;5040176;28;20601;-86
2023/10/14 05:44:49;;;;;;;17.10;3.65;;;11.40;99.90;;;;;;5027582;28;20181;-86
2023/10/14 05:47:19;;;;;;;12.50;3.33;;;11.40;99.90;;;;;;5038875;28;20638;-86
2023/10/14 05:49:45;;;;;;;14.43;2.90;;;11.30;99.90;;;;;;5050444;28;20511;-86
2023/10/14 05:52:14;;;;;;;12.07;4.00;;;11.30;99.90;;;;;;5056523;28;20208;-86
2023/10/14 05:54:41;;;;;;;12.13;2.72;;;11.30;99.90;;;;;;5022029;28;20420;-86
2023/10/14 05:57:10;;;;;;;11.15;3.10;;;11.30;99.90;;;;;;5038662;28;20177;-86
2023/10/14 05:59:37;;;;;;;20.00;4.35;;;11.30;99.90;;;;;;5038459;28;20567;-87
2023/10/14 06:02:08;;;;;;;17.42;3.20;;;11.30;99.90;;;;;;5056832;28;20638;-86
2023/10/14 06:04:39;;;;;;;11.90;2.55;;;11.30;99.90;;;;;;5056090;28;20606;-87
2023/10/14 06:07:11;;;;;;;12.98;2.83;;;11.30;99.90;;;;;;5038320;28;20245;-87
2023/10/14 06:09:37;;;;;;;15.20;4.13;;;11.30;99.90;;;;;;5038445;28;20518;-87
2023/10/14 06:12:12;;;;;;;9.20;3.53;;;11.30;99.90;;;;;;5019944;28;20201;-87
2023/10/14 06:14:41;;;;;;;11.52;2.78;;;11.30;99.90;;;;;;5036036;28;20154;-87
2023/10/14 06:17:07;;;;;;;12.57;3.23;;;11.30;99.90;;;;;;5002286;28;20660;-87
2023/10/14 06:19:36;;;;;;;14.20;3.00;;;11.30;99.90;;;;;;5002803;28;20429;-88
2023/10/14 06:22:02;;;;;;;17.33;4.03;;;11.40;99.90;;;;;;5019310;28;20428;-88
2023/10/14 06:24:28;;;;;;;8.30;3.08;;;11.40;99.90;;;;;;5004759;28;20186;-88
2023/10/14 06:27:07;;;;;;;16.48;2.88;;;11.40;99.90;;;;;;5029506;28;20174;-88
2023/10/14 06:29:33;;;;;;;15.38;2.60;;;11.50;99.90;;;;;;5009081;28;20216;-89
2023/10/14 06:32:01;;;;;;;10.17;2.40;;;11.40;99.90;;;;;;5020506;28;20197;-89
2023/10/14 06:34:27;;;;;;;16.30;3.00;;;11.50;99.90;;;;;;5037029;28;20455;-89
2023/10/14 06:36:53;;;;;;;14.45;3.00;;;11.40;99.90;;;;;;5055436;28;20431;-88
2023/10/14 06:39:26;;;;;;;7.83;2.63;;;11.40;99.90;;;;;;5055498;28;20173;-88
2023/10/14 06:41:52;;;;;;;13.52;3.47;;;11.40;99.90;;;;;;5022658;28;20423;-89
2023/10/14 06:44:21;;;;;;;15.93;3.10;;;11.30;99.90;;;;;;5055747;28;20252;-89
2023/10/14 06:46:47;;;;;;;10.80;2.73;;;11.30;99.90;;;;;;5020937;28;20288;-89
2023/10/14 06:49:16;;;;;;;10.20;3.17;;;11.20;99.90;;;;;;5021566;28;20452;-88
2023/10/14 06:51:45;;;;;;;11.90;3.45;;;11.20;99.90;;;;;;5055099;28;20170;-88
2023/10/14 06:54:13;;;;;;;9.82;2.20;;;11.20;99.90;;;;;;5021144;28;20181;-89
2023/10/14 06:56:40;;;;;;;13.07;4.18;;;11.20;99.90;;;;;;5037640;28;20602;-89
2023/10/14 06:59:06;;;;;;;23.42;2.70;;;11.30;99.90;;;;;;5036770;28;20655;-88
2023/10/14 07:01:33;;;;;;;8.23;2.78;;;11.30;99.90;;;;;;5055210;28;20176;-89
2023/10/14 07:03:59;;;;;;;12.60;2.60;;;11.30;99.90;;;;;;5038051;28;20177;-89
2023/10/14 07:06:26;;;;;;;10.27;2.90;;;11.30;99.90;;;;;;5005120;28;20651;-89
2023/10/14 07:08:52;;;;;;;6.43;1.90;;;11.30;99.90;;;;;;5020767;28;20228;-88
2023/10/14 07:11:18;;;;;;;11.13;2.67;;;11.30;99.90;;;;;;5055807;28;20501;-88
2023/10/14 07:13:46;;;;;;;11.53;2.80;;;11.40;99.90;;;;;;5037949;28;20180;-88
2023/10/14 07:16:11;;;;;;;13.02;3.20;;;11.40;99.90;;;;;;5052873;28;20292;-89
2023/10/14 07:18:37;;;;;;;8.93;2.37;;;11.40;99.90;;;;;;5018169;28;20216;-88
2023/10/14 07:21:08;;;;;;;15.13;2.73;;;11.40;99.90;;;;;;5045458;28;20572;-88
2023/10/14 07:23:34;;;;;;;13.60;2.75;;;11.50;99.90;;;;;;5046037;28;20413;-88
2023/10/14 07:26:07;;;;;;;9.57;2.30;;;11.50;99.90;;;;;;5017619;28;20213;-88
2023/10/14 07:28:35;;;;;;;11.93;4.17;;;11.50;99.90;;;;;;5035887;28;20224;-89
2023/10/14 07:31:00;;;;;;;11.50;3.20;;;11.50;99.90;;;;;;5017879;28;20800;-88
2023/10/14 07:33:26;;;;;;;12.10;2.67;;;11.60;99.90;;;;;;5019397;28;20187;-89
2023/10/14 07:35:51;;;;;;;14.77;4.13;;;11.60;99.90;;;;;;5001075;28;20683;-89
2023/10/14 07:38:17;;;;;;;12.83;4.00;;;11.50;99.90;;;;;;4992224;28;20257;-89
2023/10/14 07:40:43;;;;;;;14.13;2.53;;;11.60;99.90;;;;;;5014234;28;20182;-89
2023/10/14 07:43:11;;;;;;;9.10;2.43;;;11.60;99.90;;;;;;5014962;28;20252;-88
2023/10/14 07:45:46;;;;;;;9.27;2.23;;;11.70;99.90;;;;;;5013936;28;20213;-88
2023/10/14 07:48:13;;;;;;;8.05;2.15;;;11.70;99.90;;;;;;5015495;28;20484;-88
2023/10/14 07:50:44;;;;;;;12.70;2.70;;;11.80;99.90;;;;;;5013836;28;20181;-88
2023/10/14 07:53:14;;;;;;;12.37;2.57;;;11.90;99.90;;;;;;5016052;28;20468;-87
2023/10/14 07:55:50;;;;;;;8.50;2.70;;;11.90;99.90;;;;;;4998279;28;20559;-87
2023/10/14 07:58:18;;;;;;;7.83;2.40;;;11.90;99.90;;;;;;5014294;28;20420;-87
2023/10/14 08:00:49;;;;;;;10.30;3.07;;;11.90;99.90;;;;;;5013378;28;20421;-86
2023/10/14 08:03:20;;;;;;;8.33;2.10;;;11.90;99.90;;;;;;5015399;28;20404;-86
2023/10/14 08:05:51;;;;;;;10.50;2.67;;;11.90;99.90;;;;;;5014100;28;20417;-86
2023/10/14 08:08:19;;;;;;;9.97;2.70;;;12.00;99.90;;;;;;5015195;28;20425;-86
2023/10/14 08:10:46;;;;;;;6.87;2.60;;;12.10;99.90;;;;;;5015914;28;20417;-86
2023/10/14 08:13:21;;;;;;;13.00;2.90;;;12.10;99.90;;;;;;5018982;28;20402;-86
2023/10/14 08:15:50;;;;;;;9.27;2.30;;;12.10;99.90;;;;;;5018479;28;20950;-86
2023/10/14 08:18:16;;;;;;;11.43;3.40;;;12.20;99.90;;;;;;5017414;28;20413;-86
2023/10/14 08:20:43;;;;;;;12.05;3.65;;;12.20;99.90;;;;;;5017328;28;20213;-86
2023/10/14 08:23:10;;;;;;;8.93;3.73;;;12.20;99.90;;;;;;5019080;28;20178;-85
2023/10/14 08:25:42;;;;;;;10.20;2.30;;;12.10;99.90;;;;;;5017223;28;20925;-86
2023/10/14 08:28:09;;;;;;;14.93;3.97;;;12.20;99.90;;;;;;4998991;28;20417;-85
2023/10/14 08:30:45;;;;;;;8.83;2.20;;;12.20;99.90;;;;;;4981592;28;20423;-87
2023/10/14 08:33:15;;;;;;;11.87;2.43;;;12.20;99.90;;;;;;4997778;28;20422;-87
2023/10/14 08:35:42;;;;;;;12.50;2.30;;;12.20;99.90;;;;;;4998592;28;20465;-87
2023/10/14 08:38:19;;;;;;;9.45;2.05;;;12.20;99.90;;;;;;5020297;28;20467;-87
2023/10/14 08:40:46;;;;;;;10.57;3.77;;;12.10;99.90;;;;;;5039937;28;20208;-87
2023/10/14 08:43:18;;;;;;;20.13;3.73;;;12.00;99.90;;;;;;5044972;28;20408;-86
2023/10/14 08:45:48;;;;;;;8.27;2.37;;;12.00;99.90;;;;;;5024219;28;20412;-86
2023/10/14 08:48:24;;;;;;;14.20;2.67;;;12.00;99.90;;;;;;5040518;28;20420;-87
2023/10/14 08:50:56;;;;;;;14.10;2.63;;;12.10;99.90;;;;;;5057910;28;20392;-85
2023/10/14 08:53:23;;;;;;;13.43;2.93;;;12.20;99.90;;;;;;5040375;28;20185;-85
2023/10/14 08:55:52;;;;;;;10.20;2.37;;;12.20;99.90;;;;;;5039634;28;20460;-85
2023/10/14 08:58:20;;;;;;;10.10;2.47;;;12.30;99.90;;;;;;5058534;28;20403;-86
2023/10/14 09:00:45;;;;;;;14.23;2.80;;;12.30;99.90;;;;;;5039992;28;20510;-86
2023/10/14 09:03:11;;;;;;;9.50;1.90;;;12.50;99.90;;;;;;5057304;28;20213;-86
2023/10/14 09:05:44;;;;;;;14.77;2.83;;;12.60;99.90;;;;;;5023697;28;20186;-85
2023/10/14 09:08:17;;;;;;;5.03;1.93;;;12.80;99.90;;;;;;5040106;28;20434;-86
2023/10/14 09:10:44;;;;;;;15.17;3.60;;;12.80;99.90;;;;;;5039781;28;20530;-87
2023/10/14 09:13:19;;;;;;;9.37;2.40;;;12.90;99.90;;;;;;5057752;28;20403;-86
2023/10/14 09:15:45;;;;;;;14.80;2.63;;;13.30;99.90;;;;;;5057464;28;20466;-87
2023/10/14 09:18:16;;;;;;;7.60;2.33;;;13.50;99.90;;;;;;5039921;28;20946;-85
2023/10/14 09:20:42;;;;;;;7.60;2.20;;;13.80;99.90;;;;;;5057290;28;20415;-84
2023/10/14 09:23:33;;;;;;;13.30;3.17;;;13.60;99.90;;;;;;5056778;28;20758;-84
2023/10/14 09:26:05;;;;;;;8.07;2.00;;;13.40;99.90;;;;;;5039472;28;20420;-84
2023/10/14 09:28:41;;;;;;;9.80;2.40;;;13.20;99.90;;;;;;5039220;28;20415;-84
2023/10/14 09:31:08;;;;;;;7.53;1.90;;;13.10;99.90;;;;;;5040178;28;20514;-84
2023/10/14 09:33:44;;;;;;;8.70;3.17;;;13.00;99.90;;;;;;5039666;28;20412;-83
2023/10/14 09:36:14;;;;;;;9.83;2.43;;;13.00;99.90;;;;;;5059853;28;20505;-84
2023/10/14 09:38:41;;;;;;;12.37;3.27;;;12.90;99.90;;;;;;5039226;28;20892;-83
2023/10/14 09:41:10;;;;;;;9.93;2.30;;;12.90;99.90;;;;;;5039548;28;20507;-80
2023/10/14 09:43:42;;;;;;;9.03;2.70;;;12.80;99.90;;;;;;5039781;28;20416;-85
2023/10/14 09:46:11;;;;;;;13.00;1.60;;;12.70;99.90;;;;;;5057908;28;20407;-84
2023/10/14 09:48:37;;;;;;;10.63;2.10;;;12.70;99.90;;;;;;5040070;28;20485;-83
2023/10/14 09:51:04;;;;;;;8.73;2.67;;;13.10;99.90;;;;;;5039161;28;20411;-83
2023/10/14 09:53:35;;;;;;;9.83;2.00;;;13.10;99.90;;;;;;5039255;28;20506;-83
2023/10/14 09:56:07;;;;;;;8.67;3.20;;;12.90;99.90;;;;;;5038970;28;20456;-84
2023/10/14 09:58:43;;;;;;;7.73;2.57;;;13.10;99.90;;;;;;5056943;28;20430;-85
2023/10/14 10:01:14;;;;;;;9.13;2.83;;;13.30;99.90;;;;;;5039602;28;20420;-83
2023/10/14 10:03:52;;;;;;;8.50;2.23;;;13.20;99.90;;;;;;5057622;28;20404;-84
2023/10/14 10:06:35;;;;;;;8.00;1.93;;;13.40;99.90;;;;;;5057091;28;20462;-84
2023/10/14 10:09:23;;;;;;;6.40;2.20;;;13.30;99.90;;;;;;5056547;28;20831;-84
2023/10/14 10:11:51;;;;;;;9.27;2.53;;;13.40;99.90;;;;;;5056614;28;20435;-84
2023/10/14 10:14:19;;;;;;;7.63;2.10;;;13.70;99.90;;;;;;5038554;28;20435;-84
2023/10/14 10:16:49;;;;;;;12.10;2.43;;;14.00;99.90;;;;;;5055899;28;20782;-84
2023/10/14 10:19:14;;;;;;;5.93;1.57;;;14.30;99.90;;;;;;5056423;28;20492;-83
2023/10/14 10:22:17;;;;;;;8.00;1.93;;;13.90;99.90;;;;;;5021956;28;20440;-84
2023/10/14 10:24:46;;;;;;;4.63;1.90;;;13.80;99.90;;;;;;5038440;28;20809;-87
2023/10/14 10:27:12;;;;;;;10.63;2.17;;;13.60;99.90;;;;;;5056098;28;20487;-84
2023/10/14 10:29:51;;;;;;;11.30;2.73;;;13.60;99.90;;;;;;5037920;28;20419;-87
2023/10/14 10:32:22;;;;;;;14.70;3.07;;;13.60;99.90;;;;;;5056363;28;20388;-85
2023/10/14 10:35:05;;;;;;;9.03;1.60;;;13.80;99.90;;;;;;5037256;28;20420;-85
2023/10/14 10:37:46;;;;;;;4.53;1.50;;;14.20;99.90;;;;;;5037435;28;20486;-83
2023/10/14 10:40:13;;;;;;;5.77;1.97;;;14.30;99.90;;;;;;5038463;28;20473;-83
2023/10/14 10:42:44;;;;;;;10.20;2.03;;;14.20;99.90;;;;;;5037885;28;20482;-83
2023/10/14 10:45:22;;;;;;;9.47;2.00;;;14.30;99.90;;;;;;5038856;28;20826;-83
2023/10/14 10:47:56;;;;;;;7.33;1.97;;;14.50;99.90;;;;;;5038084;28;20424;-82
2023/10/14 10:50:26;;;;;;;5.10;1.90;;;14.60;99.90;;;;;;5055929;28;20951;-82
2023/10/14 10:53:07;;;;;;;5.97;2.13;;;14.60;99.90;;;;;;5038052;28;20408;-85
2023/10/14 10:55:36;;;;;;;10.10;1.90;;;14.60;99.90;;;;;;5038779;28;20474;-83
2023/10/14 10:58:02;;;;;;;6.10;1.60;;;14.80;99.90;;;;;;5041308;28;20420;-83
2023/10/14 11:00:32;;;;;;;11.00;2.10;;;15.10;99.90;;;;;;5023973;28;20736;-81
2023/10/14 11:03:00;;;;;;;6.10;1.60;;;15.10;99.90;;;;;;5055300;28;20420;-84
2023/10/14 11:05:26;;;;;;;9.33;2.20;;;14.70;99.90;;;;;;5022407;28;20808;-82
2023/10/14 11:07:53;;;;;;;7.40;2.20;;;14.50;99.90;;;;;;5021614;28;20428;-82
2023/10/14 11:10:29;;;;;;;8.27;1.87;;;14.40;99.90;;;;;;5021520;28;20408;-83
2023/10/14 11:12:56;;;;;;;5.53;1.80;;;14.40;99.90;;;;;;5037139;28;20592;-83
2023/10/14 11:15:23;;;;;;;9.80;2.00;;;14.30;99.90;;;;;;5020679;28;20468;-84
2023/10/14 11:17:56;;;;;;;3.97;1.87;;;14.20;99.90;;;;;;5037624;28;20502;-83
2023/10/14 11:20:24;;;;;;;11.37;3.50;;;14.30;99.90;;;;;;5055490;28;20426;-82
2023/10/14 11:22:51;;;;;;;8.73;1.80;;;14.40;99.90;;;;;;5021156;28;20778;-82
2023/10/14 11:25:18;;;;;;;7.50;1.73;;;14.50;99.90;;;;;;5054795;28;20502;-84
2023/10/14 11:27:46;;;;;;;7.17;2.03;;;14.30;99.90;;;;;;5020662;28;20831;-84
2023/10/14 11:30:18;;;;;;;5.33;2.30;;;14.50;99.90;;;;;;5037358;28;20447;-84
2023/10/14 11:32:49;;;;;;;6.43;2.00;;;14.90;99.90;;;;;;5054525;28;20408;-84
2023/10/14 11:35:21;;;;;;;9.27;1.80;;;15.10;99.90;;;;;;5036809;28;20479;-84
2023/10/14 11:38:00;;;;;;;5.83;1.80;;;15.40;99.90;;;;;;5036153;28;20471;-83
2023/10/14 11:40:49;;;;;;;5.30;1.40;;;15.40;99.90;;;;;;5055224;28;20404;-82
2023/10/14 11:43:16;;;;;;;8.03;1.70;;;15.60;99.90;;;;;;5037308;28;20401;-83
2023/10/14 11:45:45;;;;;;;7.47;1.97;;;15.70;99.90;;;;;;5055143;28;20438;-84
2023/10/14 11:48:27;;;;;;;8.23;1.90;;;15.70;99.90;;;;;;5053845;28;20477;-83
2023/10/14 11:50:54;;;;;;;5.33;1.60;;;15.90;99.90;;;;;;5037248;28;20412;-84
2023/10/14 11:53:29;;;;;;;8.43;1.73;;;15.60;99.90;;;;;;5054997;28;20502;-84
2023/10/14 11:56:04;;;;;;;2.73;1.40;;;15.10;99.90;;;;;;5037252;28;20467;-81
2023/10/14 11:58:32;;;;;;;7.10;1.67;;;14.70;99.90;;;;;;5004609;28;20408;-84
2023/10/14 12:00:58;;;;;;;7.57;1.80;;;14.60;99.90;;;;;;5037012;28;20419;-83
2023/10/14 12:03:27;;;;;;;7.13;1.83;;;14.60;99.90;;;;;;5037152;28;20419;-85
2023/10/14 12:05:59;;;;;;;6.33;1.73;;;14.60;99.90;;;;;;5020700;28;20765;-82
2023/10/14 12:08:36;;;;;;;5.93;1.73;;;14.40;99.90;;;;;;5054180;28;20510;-85
2023/10/14 12:11:03;;;;;;;6.13;1.80;;;14.40;99.90;;;;;;5036513;28;20918;-84
2023/10/14 12:13:30;;;;;;;5.33;1.70;;;14.50;99.90;;;;;;5020892;28;20408;-85
2023/10/14 12:15:56;;;;;;;2.60;1.20;;;14.70;99.90;;;;;;5036653;28;20501;-85
2023/10/14 12:18:21;;;;;;;7.60;1.87;;;14.60;99.90;;;;;;5021028;28;20412;-84
2023/10/14 12:20:48;;;;;;;4.30;1.37;;;14.70;99.90;;;;;;5037084;28;20680;-83
2023/10/14 12:23:18;;;;;;;6.23;1.70;;;14.70;99.90;;;;;;5054948;28;20169;-84
2023/10/14 12:25:48;;;;;;;4.30;1.23;;;15.00;99.90;;;;;;5037159;28;20495;-84
2023/10/14 12:28:26;;;;;;;6.13;1.33;;;15.50;99.90;;;;;;5054050;28;20422;-85
2023/10/14 12:30:58;;;;;;;7.57;2.20;;;15.70;99.90;;;;;;5036581;28;20806;-85
2023/10/14 12:33:31;;;;;;;4.57;1.53;;;15.40;99.90;;;;;;5054557;28;20400;-86
2023/10/14 12:36:00;;;;;;;6.73;1.53;;;15.20;99.90;;;;;;5035875;28;20467;-85
2023/10/14 12:38:27;;;;;;;3.87;1.50;;;14.70;99.90;;;;;;5036292;28;20471;-84
2023/10/14 12:40:53;;;;;;;9.33;1.77;;;14.40;99.90;;;;;;5020557;28;20927;-83
2023/10/14 12:43:29;;;;;;;7.03;1.83;;;14.80;99.90;;;;;;5036699;28;20428;-84
2023/10/14 12:46:30;;;;;;;7.50;2.40;;;15.10;99.90;;;;;;5053740;28;20473;-85
2023/10/14 12:48:50;;;;;;;10.07;2.10;;;15.00;99.90;;;;;;5049892;28;20409;-85
2023/10/14 12:51:17;;;;;;;7.23;1.80;;;14.80;99.90;;;;;;5037580;28;20412;-84
2023/10/14 12:53:47;;;;;;;5.47;1.87;;;14.70;99.90;;;;;;5037564;28;20415;-84
2023/10/14 12:56:22;;;;;;;5.83;1.90;;;14.80;99.90;;;;;;5020689;28;20482;-84
2023/10/14 12:58:48;;;;;;;5.07;1.50;;;14.80;99.90;;;;;;5039828;28;20407;-84
2023/10/14 13:01:20;;;;;;;6.50;2.13;;;15.00;99.90;;;;;;5057889;28;20413;-84
2023/10/14 13:03:53;;;;;;;3.97;1.23;;;15.00;99.90;;;;;;5058002;28;20404;-82
2023/10/14 13:06:24;;;;;;;8.17;2.17;;;15.20;99.90;;;;;;5040132;28;20430;-84
2023/10/14 13:08:59;;;;;;;3.87;1.63;;;15.20;99.90;;;;;;5040268;28;20432;-83
2023/10/14 13:11:25;;;;;;;6.00;2.03;;;15.20;99.90;;;;;;5041346;28;20907;-84
2023/10/14 13:13:52;;;;;;;5.47;2.03;;;15.50;99.90;;;;;;5023706;28;20472;-84
2023/10/14 13:16:19;;;;;;;13.40;2.23;;;15.70;99.90;;;;;;5047648;28;20478;-84
2023/10/14 13:18:45;;;;;;;9.27;2.20;;;15.80;99.90;;;;;;5062727;28;20487;-84
2023/10/14 13:21:14;;;;;;;8.60;2.00;;;15.70;99.90;;;;;;5040040;28;20741;-84
2023/10/14 13:23:42;;;;;;;5.67;2.00;;;15.50;99.90;;;;;;5011629;28;20440;-85
2023/10/14 13:26:09;;;;;;;9.07;2.30;;;15.10;99.90;;;;;;5037709;28;20474;-84
2023/10/14 13:28:36;;;;;;;11.73;2.23;;;14.40;99.90;;;;;;5020712;28;20432;-84
2023/10/14 13:31:04;;;;;;;11.90;2.53;;;14.10;99.90;;;;;;5039079;28;20458;-85
2023/10/14 13:33:30;;;;;;;5.80;2.47;;;14.10;99.90;;;;;;5057766;28;20450;-85
2023/10/14 13:35:56;;;;;;;5.53;1.80;;;14.10;99.90;;;;;;5039034;28;20467;-84
2023/10/14 13:38:22;;;;;;;6.67;1.70;;;13.90;99.90;;;;;;5039078;28;20747;-84
2023/10/14 13:40:49;;;;;;;4.77;1.33;;;13.80;99.90;;;;;;5023276;28;20911;-85
2023/10/14 13:43:17;;;;;;;5.70;2.07;;;13.80;99.90;;;;;;5014371;28;20436;-85
2023/10/14 13:45:43;;;;;;;10.80;2.00;;;14.00;99.90;;;;;;5019410;28;20413;-85
2023/10/14 13:48:09;;;;;;;7.10;2.33;;;14.00;99.90;;;;;;5036514;28;20419;-84
2023/10/14 13:50:38;;;;;;;5.37;1.57;;;14.10;99.90;;;;;;5019473;28;20428;-84
2023/10/14 13:53:18;;;;;;;3.60;1.67;;;14.10;99.90;;;;;;5018338;28;20475;-84
2023/10/14 13:55:44;;;;;;;4.57;1.73;;;14.30;99.90;;;;;;5020803;28;20459;-85
2023/10/14 13:58:13;;;;;;;6.33;1.60;;;14.20;99.90;;;;;;5036575;28;20416;-85
2023/10/14 14:00:44;;;;;;;5.97;1.60;;;14.20;99.90;;;;;;5019246;28;20908;-85
2023/10/14 14:03:12;;;;;;;7.43;1.90;;;14.30;99.90;;;;;;5019166;28;20831;-85